Disclaimer

Please do not use the information listed here in-flight or in-navigation, as they are not provided to us by the airports but are provided by volunteers, so they might be outdated.

Search


Regions


Airport information page

No radio frequency information is available.

Airport informations:
Latitude: 46° 41' 11.00" N
Longitude: 017° 09' 32.60" E
Elevation: 408 feet - 124 meters
Operating hours: Remarks
Operating agency: Civil government, landing fees and diplomatic clearance may be required
Timezone: UTC+1(+2DT) - Last Sunday in March to last Sunday in October
Fuel: Jet A1+, Jet A1 with icing inhibitor.

100/130 MIL Spec, low lead, aviation gasoline (BLUE)

Unknown fuel type or whether there is any fuel.

Runway information:
16/34 - 8202 x 197 feet< - >2500 x 60 meters
17R/35L - 3100 x 212 feet< - >945 x 65 meters

Recent METARs:
LHSM 171545Z 33006KT CAVOK 02/M02 Q1031
LHSM 171545Z 33006KT CAVOK 02/M02 Q1031
LHSM 171545Z 33006KT CAVOK 02/M02 Q1031

Airport on the map: